sensor_id;sensor_type;location;lat;lon;timestamp;pressure;altitude;pressure_sealevel;temperature;humidity
33795;BME280;51430;52.242;21.118;2023-06-22T00:00:34;100364.21;;;22.37;92.68
33795;BME280;51430;52.242;21.118;2023-06-22T00:03:23;100370.23;;;22.27;92.89
33795;BME280;51430;52.242;21.118;2023-06-22T00:05:52;100371.84;;;22.24;93.02
33795;BME280;51430;52.242;21.118;2023-06-22T00:08:20;100371.65;;;22.22;93.10
33795;BME280;51430;52.242;21.118;2023-06-22T00:10:51;100369.80;;;22.18;93.12
33795;BME280;51430;52.242;21.118;2023-06-22T00:13:21;100372.90;;;22.13;93.35
33795;BME280;51430;52.242;21.118;2023-06-22T00:15:48;100372.29;;;22.09;93.36
33795;BME280;51430;52.242;21.118;2023-06-22T00:18:16;100372.41;;;22.06;93.54
33795;BME280;51430;52.242;21.118;2023-06-22T00:20:44;100378.09;;;22.01;93.80
33795;BME280;51430;52.242;21.118;2023-06-22T00:23:13;100377.20;;;21.93;94.42
33795;BME280;51430;52.242;21.118;2023-06-22T00:25:44;100375.61;;;21.84;95.08
33795;BME280;51430;52.242;21.118;2023-06-22T00:28:12;100374.94;;;21.81;95.22
33795;BME280;51430;52.242;21.118;2023-06-22T00:30:41;100372.05;;;21.80;95.42
33795;BME280;51430;52.242;21.118;2023-06-22T00:33:08;100373.91;;;21.84;95.05
33795;BME280;51430;52.242;21.118;2023-06-22T00:35:36;100374.80;;;21.85;94.80
33795;BME280;51430;52.242;21.118;2023-06-22T00:38:07;100371.73;;;21.84;94.75
33795;BME280;51430;52.242;21.118;2023-06-22T00:40:37;100367.29;;;21.80;95.07
33795;BME280;51430;52.242;21.118;2023-06-22T00:43:05;100368.61;;;21.81;95.08
33795;BME280;51430;52.242;21.118;2023-06-22T00:45:34;100370.26;;;21.82;95.54
33795;BME280;51430;52.242;21.118;2023-06-22T00:48:02;100369.44;;;21.81;95.48
33795;BME280;51430;52.242;21.118;2023-06-22T00:50:32;100370.83;;;21.81;95.50
33795;BME280;51430;52.242;21.118;2023-06-22T00:53:08;100369.75;;;21.80;95.28
33795;BME280;51430;52.242;21.118;2023-06-22T00:55:47;100373.41;;;21.78;95.53
33795;BME280;51430;52.242;21.118;2023-06-22T00:58:15;100370.98;;;21.73;95.80
33795;BME280;51430;52.242;21.118;2023-06-22T01:00:43;100368.25;;;21.73;95.76
33795;BME280;51430;52.242;21.118;2023-06-22T01:03:11;100364.66;;;21.76;95.74
33795;BME280;51430;52.242;21.118;2023-06-22T01:05:40;100358.47;;;21.75;95.86
33795;BME280;51430;52.242;21.118;2023-06-22T01:08:29;100351.44;;;21.73;95.99
33795;BME280;51430;52.242;21.118;2023-06-22T01:11:09;100344.83;;;21.68;95.81
33795;BME280;51430;52.242;21.118;2023-06-22T01:16:23;100337.90;;;21.61;95.84
33795;BME280;51430;52.242;21.118;2023-06-22T01:18:55;100336.39;;;21.61;95.58
33795;BME280;51430;52.242;21.118;2023-06-22T01:21:25;100329.54;;;21.58;95.76
33795;BME280;51430;52.242;21.118;2023-06-22T01:29:11;100331.80;;;21.51;95.78
33795;BME280;51430;52.242;21.118;2023-06-22T01:31:42;100327.86;;;21.47;95.95
33795;BME280;51430;52.242;21.118;2023-06-22T01:34:15;100327.00;;;21.44;96.06
33795;BME280;51430;52.242;21.118;2023-06-22T01:36:46;100327.77;;;21.41;96.10
33795;BME280;51430;52.242;21.118;2023-06-22T01:39:15;100326.33;;;21.39;96.14
33795;BME280;51430;52.242;21.118;2023-06-22T01:41:43;100321.53;;;21.35;96.38
33795;BME280;51430;52.242;21.118;2023-06-22T01:44:12;100319.88;;;21.31;96.56
33795;BME280;51430;52.242;21.118;2023-06-22T01:46:40;100319.04;;;21.30;97.00
33795;BME280;51430;52.242;21.118;2023-06-22T01:49:08;100315.05;;;21.29;97.21
33795;BME280;51430;52.242;21.118;2023-06-22T01:51:36;100315.52;;;21.29;97.09
33795;BME280;51430;52.242;21.118;2023-06-22T01:54:06;100320.25;;;21.30;96.71
33795;BME280;51430;52.242;21.118;2023-06-22T01:56:35;100322.91;;;21.28;96.59
33795;BME280;51430;52.242;21.118;2023-06-22T02:02:22;100331.42;;;21.22;96.67
33795;BME280;51430;52.242;21.118;2023-06-22T02:04:47;100330.62;;;21.18;97.05
33795;BME280;51430;52.242;21.118;2023-06-22T02:07:18;100331.10;;;21.17;96.94
33795;BME280;51430;52.242;21.118;2023-06-22T02:09:51;100328.55;;;21.13;97.16
33795;BME280;51430;52.242;21.118;2023-06-22T02:12:22;100330.97;;;21.13;97.03
33795;BME280;51430;52.242;21.118;2023-06-22T02:14:53;100342.42;;;21.13;97.10
33795;BME280;51430;52.242;21.118;2023-06-22T02:17:21;100352.29;;;21.13;96.86
33795;BME280;51430;52.242;21.118;2023-06-22T02:19:50;100359.60;;;21.13;96.79
33795;BME280;51430;52.242;21.118;2023-06-22T02:22:17;100367.59;;;21.12;96.95
33795;BME280;51430;52.242;21.118;2023-06-22T02:24:45;100369.14;;;21.13;97.16
33795;BME280;51430;52.242;21.118;2023-06-22T02:27:13;100372.66;;;21.15;97.30
33795;BME280;51430;52.242;21.118;2023-06-22T02:29:41;100377.30;;;21.16;97.40
33795;BME280;51430;52.242;21.118;2023-06-22T02:32:09;100380.50;;;21.20;97.27
33795;BME280;51430;52.242;21.118;2023-06-22T02:34:37;100382.15;;;21.27;97.61
33795;BME280;51430;52.242;21.118;2023-06-22T02:37:05;100386.16;;;21.35;97.75
33795;BME280;51430;52.242;21.118;2023-06-22T02:39:33;100386.89;;;21.40;98.26
33795;BME280;51430;52.242;21.118;2023-06-22T02:42:01;100389.02;;;21.52;98.53
33795;BME280;51430;52.242;21.118;2023-06-22T02:44:29;100392.08;;;21.63;98.97
33795;BME280;51430;52.242;21.118;2023-06-22T02:46:57;100392.02;;;21.71;98.96
33795;BME280;51430;52.242;21.118;2023-06-22T02:49:25;100395.43;;;21.81;98.71
33795;BME280;51430;52.242;21.118;2023-06-22T02:51:53;100405.06;;;21.87;98.40
33795;BME280;51430;52.242;21.118;2023-06-22T02:54:23;100409.57;;;21.94;98.50
33795;BME280;51430;52.242;21.118;2023-06-22T02:56:50;100411.84;;;21.99;98.52
33795;BME280;51430;52.242;21.118;2023-06-22T02:59:18;100413.81;;;22.00;98.69
33795;BME280;51430;52.242;21.118;2023-06-22T03:01:51;100414.72;;;22.07;98.38
33795;BME280;51430;52.242;21.118;2023-06-22T03:04:19;100418.23;;;22.12;98.11
33795;BME280;51430;52.242;21.118;2023-06-22T03:06:47;100422.24;;;22.15;97.77
33795;BME280;51430;52.242;21.118;2023-06-22T03:09:22;100422.70;;;22.17;97.82
33795;BME280;51430;52.242;21.118;2023-06-22T03:11:49;100419.92;;;22.22;97.68
33795;BME280;51430;52.242;21.118;2023-06-22T03:14:17;100421.73;;;22.23;97.44
33795;BME280;51430;52.242;21.118;2023-06-22T03:16:45;100423.34;;;22.30;97.32
33795;BME280;51430;52.242;21.118;2023-06-22T03:19:13;100429.40;;;22.37;96.81
33795;BME280;51430;52.242;21.118;2023-06-22T03:21:41;100431.05;;;22.38;96.31
33795;BME280;51430;52.242;21.118;2023-06-22T03:27:49;100441.21;;;22.33;96.40
33795;BME280;51430;52.242;21.118;2023-06-22T03:30:16;100445.70;;;22.25;96.86
33795;BME280;51430;52.242;21.118;2023-06-22T03:32:42;100444.45;;;22.30;96.69
33795;BME280;51430;52.242;21.118;2023-06-22T03:35:09;100444.31;;;22.36;96.08
33795;BME280;51430;52.242;21.118;2023-06-22T03:37:39;100443.80;;;22.38;95.85
33795;BME280;51430;52.242;21.118;2023-06-22T03:40:06;100447.16;;;22.38;95.71
33795;BME280;51430;52.242;21.118;2023-06-22T03:42:34;100445.98;;;22.42;95.93
33795;BME280;51430;52.242;21.118;2023-06-22T03:45:06;100444.02;;;22.44;95.36
33795;BME280;51430;52.242;21.118;2023-06-22T03:47:33;100444.41;;;22.45;95.31
33795;BME280;51430;52.242;21.118;2023-06-22T03:50:00;100451.40;;;22.47;95.19
33795;BME280;51430;52.242;21.118;2023-06-22T03:52:34;100453.26;;;22.44;95.00
33795;BME280;51430;52.242;21.118;2023-06-22T03:55:00;100454.77;;;22.40;95.04
33795;BME280;51430;52.242;21.118;2023-06-22T03:57:39;100461.41;;;22.40;95.35
33795;BME280;51430;52.242;21.118;2023-06-22T04:00:06;100466.86;;;22.43;95.15
33795;BME280;51430;52.242;21.118;2023-06-22T04:02:34;100470.38;;;22.42;94.75
33795;BME280;51430;52.242;21.118;2023-06-22T04:05:00;100475.64;;;22.38;94.75
33795;BME280;51430;52.242;21.118;2023-06-22T04:07:36;100476.58;;;22.38;95.00
33795;BME280;51430;52.242;21.118;2023-06-22T04:10:06;100475.98;;;22.45;94.73
33795;BME280;51430;52.242;21.118;2023-06-22T04:12:33;100474.55;;;22.48;94.37
33795;BME280;51430;52.242;21.118;2023-06-22T04:15:00;100474.03;;;22.55;94.29
33795;BME280;51430;52.242;21.118;2023-06-22T04:17:26;100474.42;;;22.64;93.70
33795;BME280;51430;52.242;21.118;2023-06-22T04:19:53;100476.19;;;22.72;93.40
33795;BME280;51430;52.242;21.118;2023-06-22T04:22:19;100486.20;;;22.73;92.95
33795;BME280;51430;52.242;21.118;2023-06-22T04:24:46;100489.63;;;22.75;92.59
33795;BME280;51430;52.242;21.118;2023-06-22T04:27:12;100486.25;;;22.82;92.52
33795;BME280;51430;52.242;21.118;2023-06-22T04:29:39;100485.30;;;22.86;92.00
33795;BME280;51430;52.242;21.118;2023-06-22T04:32:15;100486.49;;;22.88;92.06
33795;BME280;51430;52.242;21.118;2023-06-22T04:34:42;100486.23;;;22.94;91.63
33795;BME280;51430;52.242;21.118;2023-06-22T04:37:09;100489.30;;;22.98;91.50
33795;BME280;51430;52.242;21.118;2023-06-22T04:39:35;100496.10;;;23.05;90.99
33795;BME280;51430;52.242;21.118;2023-06-22T04:42:02;100495.93;;;23.10;90.75
33795;BME280;51430;52.242;21.118;2023-06-22T04:44:29;100491.89;;;23.13;90.53
33795;BME280;51430;52.242;21.118;2023-06-22T04:46:58;100484.14;;;23.15;90.54
33795;BME280;51430;52.242;21.118;2023-06-22T04:49:30;100485.41;;;23.19;90.39
33795;BME280;51430;52.242;21.118;2023-06-22T04:52:02;100485.48;;;23.32;90.16
33795;BME280;51430;52.242;21.118;2023-06-22T04:54:29;100488.10;;;23.42;88.92
33795;BME280;51430;52.242;21.118;2023-06-22T04:57:07;100486.89;;;23.42;88.47
33795;BME280;51430;52.242;21.118;2023-06-22T04:59:38;100487.69;;;23.43;88.81
33795;BME280;51430;52.242;21.118;2023-06-22T05:02:05;100490.46;;;23.51;88.85
33795;BME280;51430;52.242;21.118;2023-06-22T05:04:33;100493.77;;;23.63;88.35
33795;BME280;51430;52.242;21.118;2023-06-22T05:07:02;100493.85;;;23.69;87.88
33795;BME280;51430;52.242;21.118;2023-06-22T05:09:29;100491.41;;;23.73;87.60
33795;BME280;51430;52.242;21.118;2023-06-22T05:11:55;100489.66;;;23.77;86.95
33795;BME280;51430;52.242;21.118;2023-06-22T05:14:26;100494.23;;;23.76;86.71
33795;BME280;51430;52.242;21.118;2023-06-22T05:16:52;100491.89;;;23.64;86.58
33795;BME280;51430;52.242;21.118;2023-06-22T05:19:19;100494.45;;;23.59;87.11
33795;BME280;51430;52.242;21.118;2023-06-22T05:21:45;100492.18;;;23.57;87.21
33795;BME280;51430;52.242;21.118;2023-06-22T05:24:12;100494.70;;;23.61;87.48
33795;BME280;51430;52.242;21.118;2023-06-22T05:26:39;100491.90;;;23.73;87.43
33795;BME280;51430;52.242;21.118;2023-06-22T05:29:05;100496.95;;;23.86;87.14
33795;BME280;51430;52.242;21.118;2023-06-22T05:31:33;100504.18;;;23.92;86.37
33795;BME280;51430;52.242;21.118;2023-06-22T05:33:59;100508.35;;;23.99;85.83
33795;BME280;51430;52.242;21.118;2023-06-22T05:36:26;100512.80;;;24.00;85.27
33795;BME280;51430;52.242;21.118;2023-06-22T05:38:52;100513.36;;;24.00;84.90
33795;BME280;51430;52.242;21.118;2023-06-22T05:41:19;100514.63;;;24.04;85.18
33795;BME280;51430;52.242;21.118;2023-06-22T05:43:46;100510.30;;;24.12;84.59
33795;BME280;51430;52.242;21.118;2023-06-22T05:46:12;100515.39;;;24.16;84.07
33795;BME280;51430;52.242;21.118;2023-06-22T05:48:39;100521.19;;;24.25;84.04
33795;BME280;51430;52.242;21.118;2023-06-22T05:55:33;100528.10;;;23.97;84.53
33795;BME280;51430;52.242;21.118;2023-06-22T05:58:02;100532.84;;;23.88;84.66
33795;BME280;51430;52.242;21.118;2023-06-22T06:00:34;100532.63;;;23.87;84.76
33795;BME280;51430;52.242;21.118;2023-06-22T06:03:02;100532.98;;;23.91;85.09
33795;BME280;51430;52.242;21.118;2023-06-22T06:05:34;100533.75;;;23.98;84.78
33795;BME280;51430;52.242;21.118;2023-06-22T06:08:04;100534.48;;;24.03;84.47
33795;BME280;51430;52.242;21.118;2023-06-22T06:10:35;100533.30;;;24.11;84.11
33795;BME280;51430;52.242;21.118;2023-06-22T06:13:03;100526.52;;;24.15;84.19
33795;BME280;51430;52.242;21.118;2023-06-22T06:15:34;100529.55;;;24.19;83.85
33795;BME280;51430;52.242;21.118;2023-06-22T06:18:02;100529.73;;;24.23;83.82
33795;BME280;51430;52.242;21.118;2023-06-22T06:20:33;100539.96;;;24.29;83.92
33795;BME280;51430;52.242;21.118;2023-06-22T06:23:02;100549.95;;;24.30;83.45
33795;BME280;51430;52.242;21.118;2023-06-22T06:25:30;100556.03;;;24.27;83.56
33795;BME280;51430;52.242;21.118;2023-06-22T06:27:58;100555.73;;;24.26;83.21
33795;BME280;51430;52.242;21.118;2023-06-22T06:30:26;100555.11;;;24.03;83.15
33795;BME280;51430;52.242;21.118;2023-06-22T06:32:55;100557.33;;;23.87;83.87
33795;BME280;51430;52.242;21.118;2023-06-22T06:35:23;100553.70;;;23.78;84.28
33795;BME280;51430;52.242;21.118;2023-06-22T06:37:51;100558.52;;;23.74;84.80
33795;BME280;51430;52.242;21.118;2023-06-22T06:40:20;100562.21;;;23.73;84.38
33795;BME280;51430;52.242;21.118;2023-06-22T06:42:50;100555.27;;;23.71;84.73
33795;BME280;51430;52.242;21.118;2023-06-22T06:45:21;100553.38;;;23.80;84.67
33795;BME280;51430;52.242;21.118;2023-06-22T06:47:52;100558.59;;;23.83;84.21
33795;BME280;51430;52.242;21.118;2023-06-22T06:50:20;100557.58;;;23.93;83.91
33795;BME280;51430;52.242;21.118;2023-06-22T06:52:49;100558.73;;;24.00;83.73
33795;BME280;51430;52.242;21.118;2023-06-22T06:55:21;100554.00;;;24.16;83.19
33795;BME280;51430;52.242;21.118;2023-06-22T06:57:51;100550.86;;;24.44;83.06
33795;BME280;51430;52.242;21.118;2023-06-22T07:00:20;100552.42;;;24.67;81.18
33795;BME280;51430;52.242;21.118;2023-06-22T07:02:48;100549.67;;;24.86;80.74
33795;BME280;51430;52.242;21.118;2023-06-22T07:05:17;100549.09;;;25.02;79.33
33795;BME280;51430;52.242;21.118;2023-06-22T07:07:44;100547.95;;;25.20;78.54
33795;BME280;51430;52.242;21.118;2023-06-22T07:10:12;100544.45;;;25.48;77.83
33795;BME280;51430;52.242;21.118;2023-06-22T07:12:40;100548.58;;;25.79;76.24
33795;BME280;51430;52.242;21.118;2023-06-22T07:15:09;100548.67;;;25.81;74.63
33795;BME280;51430;52.242;21.118;2023-06-22T07:17:39;100548.69;;;25.83;74.43
33795;BME280;51430;52.242;21.118;2023-06-22T07:20:09;100553.33;;;25.90;74.28
33795;BME280;51430;52.242;21.118;2023-06-22T07:22:41;100558.43;;;26.05;73.83
33795;BME280;51430;52.242;21.118;2023-06-22T07:25:10;100562.39;;;26.43;72.97
33795;BME280;51430;52.242;21.118;2023-06-22T07:28:06;100561.36;;;26.97;71.99
33795;BME280;51430;52.242;21.118;2023-06-22T07:30:34;100564.94;;;27.65;68.72
33795;BME280;51430;52.242;21.118;2023-06-22T07:33:02;100568.84;;;27.82;66.38
33795;BME280;51430;52.242;21.118;2023-06-22T07:35:32;100572.05;;;27.69;66.78
33795;BME280;51430;52.242;21.118;2023-06-22T07:38:00;100573.09;;;27.73;66.67
33795;BME280;51430;52.242;21.118;2023-06-22T07:40:32;100581.37;;;27.87;66.98
33795;BME280;51430;52.242;21.118;2023-06-22T07:43:02;100583.09;;;28.28;66.14
33795;BME280;51430;52.242;21.118;2023-06-22T07:45:31;100580.90;;;28.70;66.08
33795;BME280;51430;52.242;21.118;2023-06-22T07:48:01;100585.86;;;28.84;62.82
33795;BME280;51430;52.242;21.118;2023-06-22T07:52:57;100583.64;;;29.06;62.67
33795;BME280;51430;52.242;21.118;2023-06-22T07:55:25;100580.05;;;28.99;62.28
33795;BME280;51430;52.242;21.118;2023-06-22T07:57:53;100581.16;;;29.48;61.14
33795;BME280;51430;52.242;21.118;2023-06-22T08:00:21;100578.90;;;29.91;57.28
33795;BME280;51430;52.242;21.118;2023-06-22T08:02:50;100584.96;;;30.32;54.71
33795;BME280;51430;52.242;21.118;2023-06-22T08:05:20;100592.45;;;30.84;53.55
33795;BME280;51430;52.242;21.118;2023-06-22T08:08:02;100601.13;;;31.36;50.68
33795;BME280;51430;52.242;21.118;2023-06-22T08:10:30;100593.73;;;31.56;49.11
33795;BME280;51430;52.242;21.118;2023-06-22T08:13:02;100590.27;;;31.77;48.17
33795;BME280;51430;52.242;21.118;2023-06-22T08:15:30;100593.58;;;31.70;47.66
33795;BME280;51430;52.242;21.118;2023-06-22T08:17:59;100592.38;;;31.77;47.57
33795;BME280;51430;52.242;21.118;2023-06-22T08:20:28;100583.86;;;31.76;46.48
33795;BME280;51430;52.242;21.118;2023-06-22T08:22:56;100586.85;;;32.16;46.79
33795;BME280;51430;52.242;21.118;2023-06-22T08:25:25;100589.95;;;32.57;45.03
33795;BME280;51430;52.242;21.118;2023-06-22T08:27:54;100596.11;;;32.71;45.39
33795;BME280;51430;52.242;21.118;2023-06-22T08:30:22;100595.34;;;33.07;44.99
33795;BME280;51430;52.242;21.118;2023-06-22T08:32:50;100592.71;;;33.56;44.87
33795;BME280;51430;52.242;21.118;2023-06-22T08:35:17;100585.45;;;33.87;43.94
33795;BME280;51430;52.242;21.118;2023-06-22T08:37:45;100587.15;;;33.81;42.27
33795;BME280;51430;52.242;21.118;2023-06-22T08:40:20;100593.77;;;33.59;42.43
33795;BME280;51430;52.242;21.118;2023-06-22T08:42:49;100587.96;;;33.34;42.75
33795;BME280;51430;52.242;21.118;2023-06-22T08:45:17;100589.20;;;33.27;42.50
33795;BME280;51430;52.242;21.118;2023-06-22T08:47:45;100589.99;;;33.31;42.08
33795;BME280;51430;52.242;21.118;2023-06-22T08:50:13;100590.58;;;33.40;41.70
33795;BME280;51430;52.242;21.118;2023-06-22T08:52:41;100592.66;;;33.26;41.70
33795;BME280;51430;52.242;21.118;2023-06-22T08:55:12;100594.35;;;33.71;41.93
33795;BME280;51430;52.242;21.118;2023-06-22T08:57:40;100593.73;;;34.32;41.73
33795;BME280;51430;52.242;21.118;2023-06-22T09:00:15;100592.73;;;34.65;40.41
33795;BME280;51430;52.242;21.118;2023-06-22T09:02:53;100593.98;;;34.65;39.16
33795;BME280;51430;52.242;21.118;2023-06-22T09:05:34;100602.13;;;34.97;39.30
33795;BME280;51430;52.242;21.118;2023-06-22T09:08:02;100604.65;;;35.41;37.99
33795;BME280;51430;52.242;21.118;2023-06-22T09:10:33;100614.30;;;34.79;37.70
33795;BME280;51430;52.242;21.118;2023-06-22T09:13:01;100613.19;;;34.26;38.82
33795;BME280;51430;52.242;21.118;2023-06-22T09:15:29;100612.87;;;34.48;39.49
33795;BME280;51430;52.242;21.118;2023-06-22T09:17:58;100608.39;;;34.69;38.54
33795;BME280;51430;52.242;21.118;2023-06-22T09:20:26;100611.09;;;34.78;38.18
33795;BME280;51430;52.242;21.118;2023-06-22T09:22:55;100609.38;;;34.72;38.77
33795;BME280;51430;52.242;21.118;2023-06-22T09:25:23;100604.41;;;35.31;39.29
33795;BME280;51430;52.242;21.118;2023-06-22T09:27:51;100602.64;;;35.67;36.47
33795;BME280;51430;52.242;21.118;2023-06-22T09:30:21;100599.63;;;35.38;35.60
33795;BME280;51430;52.242;21.118;2023-06-22T09:32:49;100598.17;;;35.54;36.39
33795;BME280;51430;52.242;21.118;2023-06-22T09:35:17;100595.68;;;35.97;34.88
33795;BME280;51430;52.242;21.118;2023-06-22T09:37:45;100600.86;;;36.53;34.07
33795;BME280;51430;52.242;21.118;2023-06-22T09:40:14;100602.21;;;36.90;34.16
33795;BME280;51430;52.242;21.118;2023-06-22T09:42:44;100600.82;;;37.31;34.32
33795;BME280;51430;52.242;21.118;2023-06-22T09:45:12;100596.48;;;37.67;33.00
33795;BME280;51430;52.242;21.118;2023-06-22T09:47:40;100603.02;;;37.37;31.82
33795;BME280;51430;52.242;21.118;2023-06-22T09:50:09;100597.39;;;36.71;32.82
33795;BME280;51430;52.242;21.118;2023-06-22T09:52:37;100592.37;;;36.73;33.71
33795;BME280;51430;52.242;21.118;2023-06-22T09:55:08;100592.47;;;37.28;33.83
33795;BME280;51430;52.242;21.118;2023-06-22T09:57:36;100591.73;;;37.84;31.82
33795;BME280;51430;52.242;21.118;2023-06-22T10:00:06;100592.38;;;38.10;32.00
33795;BME280;51430;52.242;21.118;2023-06-22T10:02:41;100591.40;;;38.31;30.12
33795;BME280;51430;52.242;21.118;2023-06-22T10:05:10;100598.41;;;38.20;30.26
33795;BME280;51430;52.242;21.118;2023-06-22T10:07:38;100603.66;;;38.43;30.54
33795;BME280;51430;52.242;21.118;2023-06-22T10:10:11;100597.05;;;38.81;29.93
33795;BME280;51430;52.242;21.118;2023-06-22T10:12:42;100596.17;;;39.15;30.06
33795;BME280;51430;52.242;21.118;2023-06-22T10:15:11;100600.47;;;39.36;28.81
33795;BME280;51430;52.242;21.118;2023-06-22T10:17:40;100606.34;;;39.43;28.19
33795;BME280;51430;52.242;21.118;2023-06-22T10:20:08;100602.88;;;39.70;27.60
33795;BME280;51430;52.242;21.118;2023-06-22T10:22:42;100606.13;;;39.89;27.18
33795;BME280;51430;52.242;21.118;2023-06-22T10:25:11;100608.38;;;39.99;27.41
33795;BME280;51430;52.242;21.118;2023-06-22T10:27:40;100608.05;;;40.04;27.26
33795;BME280;51430;52.242;21.118;2023-06-22T10:30:10;100610.98;;;40.03;27.97
33795;BME280;51430;52.242;21.118;2023-06-22T10:32:42;100614.05;;;40.26;27.23
33795;BME280;51430;52.242;21.118;2023-06-22T10:35:11;100607.80;;;40.24;26.63
33795;BME280;51430;52.242;21.118;2023-06-22T10:37:44;100604.39;;;39.98;26.48
33795;BME280;51430;52.242;21.118;2023-06-22T10:40:13;100599.52;;;39.77;27.27
33795;BME280;51430;52.242;21.118;2023-06-22T10:42:43;100593.77;;;40.04;27.34
33795;BME280;51430;52.242;21.118;2023-06-22T10:45:12;100597.70;;;39.98;27.26
33795;BME280;51430;52.242;21.118;2023-06-22T10:47:40;100591.50;;;39.37;27.80
33795;BME280;51430;52.242;21.118;2023-06-22T10:50:10;100586.02;;;39.12;28.64
33795;BME280;51430;52.242;21.118;2023-06-22T10:52:39;100578.89;;;38.87;28.98
33795;BME280;51430;52.242;21.118;2023-06-22T10:55:10;100578.30;;;38.75;29.60
33795;BME280;51430;52.242;21.118;2023-06-22T10:57:38;100579.36;;;39.15;30.15
33795;BME280;51430;52.242;21.118;2023-06-22T11:00:10;100579.29;;;39.20;29.19
33795;BME280;51430;52.242;21.118;2023-06-22T11:02:39;100580.86;;;39.26;29.28
33795;BME280;51430;52.242;21.118;2023-06-22T11:12:48;100576.67;;;39.30;29.23
33795;BME280;51430;52.242;21.118;2023-06-22T11:15:16;100573.40;;;39.96;28.26
33795;BME280;51430;52.242;21.118;2023-06-22T11:17:46;100571.55;;;40.15;27.95
33795;BME280;51430;52.242;21.118;2023-06-22T11:20:13;100572.74;;;40.54;27.91
33795;BME280;51430;52.242;21.118;2023-06-22T11:22:40;100577.36;;;40.68;27.44
33795;BME280;51430;52.242;21.118;2023-06-22T11:25:09;100580.37;;;40.45;27.16
33795;BME280;51430;52.242;21.118;2023-06-22T11:27:35;100574.70;;;39.82;27.54
33795;BME280;51430;52.242;21.118;2023-06-22T11:30:02;100569.38;;;39.36;27.93
33795;BME280;51430;52.242;21.118;2023-06-22T11:32:32;100564.11;;;39.33;28.38
33795;BME280;51430;52.242;21.118;2023-06-22T11:34:59;100567.67;;;39.50;29.00
33795;BME280;51430;52.242;21.118;2023-06-22T11:37:25;100562.64;;;39.74;28.76
33795;BME280;51430;52.242;21.118;2023-06-22T11:39:52;100563.17;;;40.52;28.27
33795;BME280;51430;52.242;21.118;2023-06-22T11:42:25;100569.23;;;40.90;27.16
33795;BME280;51430;52.242;21.118;2023-06-22T11:44:51;100567.42;;;40.65;27.10
33795;BME280;51430;52.242;21.118;2023-06-22T11:47:19;100562.21;;;40.55;27.54
33795;BME280;51430;52.242;21.118;2023-06-22T11:49:46;100561.04;;;40.56;27.66
33795;BME280;51430;52.242;21.118;2023-06-22T11:52:13;100563.83;;;40.75;27.15
33795;BME280;51430;52.242;21.118;2023-06-22T11:54:39;100563.79;;;40.74;27.25
33795;BME280;51430;52.242;21.118;2023-06-22T11:57:06;100567.73;;;41.22;26.83
33795;BME280;51430;52.242;21.118;2023-06-22T11:59:32;100574.02;;;41.71;25.99
33795;BME280;51430;52.242;21.118;2023-06-22T12:01:59;100569.56;;;42.29;25.84
33795;BME280;51430;52.242;21.118;2023-06-22T12:04:25;100571.36;;;42.57;25.88
33795;BME280;51430;52.242;21.118;2023-06-22T12:06:52;100575.15;;;42.32;25.82
33795;BME280;51430;52.242;21.118;2023-06-22T12:09:19;100574.52;;;42.34;24.92
33795;BME280;51430;52.242;21.118;2023-06-22T12:11:48;100568.88;;;42.58;25.12
33795;BME280;51430;52.242;21.118;2023-06-22T12:14:14;100567.36;;;43.05;25.23
33795;BME280;51430;52.242;21.118;2023-06-22T12:16:40;100570.73;;;43.36;24.66
33795;BME280;51430;52.242;21.118;2023-06-22T12:19:07;100570.91;;;43.65;24.67
33795;BME280;51430;52.242;21.118;2023-06-22T12:21:33;100570.83;;;43.80;23.95
33795;BME280;51430;52.242;21.118;2023-06-22T12:27:27;100565.48;;;44.18;24.17
33795;BME280;51430;52.242;21.118;2023-06-22T12:29:56;100564.08;;;43.59;22.91
33795;BME280;51430;52.242;21.118;2023-06-22T12:32:24;100555.22;;;42.93;24.03
33795;BME280;51430;52.242;21.118;2023-06-22T12:34:53;100556.65;;;43.11;24.69
33795;BME280;51430;52.242;21.118;2023-06-22T12:37:21;100554.98;;;43.23;24.05
33795;BME280;51430;52.242;21.118;2023-06-22T12:39:50;100552.55;;;43.56;24.13
33795;BME280;51430;52.242;21.118;2023-06-22T12:42:19;100554.40;;;43.51;23.42
33795;BME280;51430;52.242;21.118;2023-06-22T12:44:46;100555.44;;;43.13;23.50
33795;BME280;51430;52.242;21.118;2023-06-22T12:47:14;100550.23;;;42.53;23.70
33795;BME280;51430;52.242;21.118;2023-06-22T12:49:42;100549.30;;;42.23;23.56
33795;BME280;51430;52.242;21.118;2023-06-22T12:52:10;100547.18;;;41.73;23.94
33795;BME280;51430;52.242;21.118;2023-06-22T12:54:38;100553.27;;;41.45;24.76
33795;BME280;51430;52.242;21.118;2023-06-22T12:57:22;100552.52;;;41.47;24.63
33795;BME280;51430;52.242;21.118;2023-06-22T12:59:51;100549.70;;;41.76;24.30
33795;BME280;51430;52.242;21.118;2023-06-22T13:02:18;100547.05;;;41.87;23.76
33795;BME280;51430;52.242;21.118;2023-06-22T13:04:46;100555.69;;;41.55;24.31
33795;BME280;51430;52.242;21.118;2023-06-22T13:07:14;100554.10;;;41.76;23.99
33795;BME280;51430;52.242;21.118;2023-06-22T13:09:53;100552.95;;;42.00;23.48
33795;BME280;51430;52.242;21.118;2023-06-22T13:12:21;100555.23;;;41.47;23.61
33795;BME280;51430;52.242;21.118;2023-06-22T13:14:50;100553.04;;;41.29;24.01
33795;BME280;51430;52.242;21.118;2023-06-22T13:17:20;100545.11;;;41.23;23.80
33795;BME280;51430;52.242;21.118;2023-06-22T13:19:48;100544.05;;;41.34;23.69
33795;BME280;51430;52.242;21.118;2023-06-22T13:22:31;100544.31;;;41.00;23.85